createdAt,value
2023-05-06T00:00:23.223Z,18.53
2023-05-06T00:02:52.805Z,18.47
2023-05-06T00:05:20.960Z,16.57
2023-05-06T00:07:49.076Z,17.47
2023-05-06T00:10:17.253Z,16.80
2023-05-06T00:12:45.392Z,16.83
2023-05-06T00:15:13.530Z,16.30
2023-05-06T00:17:41.697Z,19.00
2023-05-06T00:20:12.161Z,16.37
2023-05-06T00:22:40.207Z,17.63
2023-05-06T00:25:08.953Z,14.97
2023-05-06T00:27:37.165Z,18.93
2023-05-06T00:30:05.963Z,17.77
2023-05-06T00:32:34.048Z,17.97
2023-05-06T00:35:02.186Z,16.40
2023-05-06T00:37:31.696Z,17.70
2023-05-06T00:39:59.777Z,15.60
2023-05-06T00:42:27.942Z,17.63
2023-05-06T00:44:56.033Z,19.37
2023-05-06T00:47:24.554Z,18.13
2023-05-06T00:49:52.774Z,18.27
2023-05-06T00:52:21.589Z,20.20
2023-05-06T00:54:51.062Z,19.17
2023-05-06T00:57:19.253Z,22.50
2023-05-06T00:59:47.397Z,20.43
2023-05-06T01:02:16.637Z,19.63
2023-05-06T01:04:45.328Z,20.47
2023-05-06T01:07:24.415Z,16.30
2023-05-06T01:09:58.560Z,19.87
2023-05-06T01:12:33.019Z,20.63
2023-05-06T01:15:06.641Z,21.40
2023-05-06T01:17:37.930Z,18.20
2023-05-06T01:20:11.071Z,20.77
2023-05-06T01:22:40.124Z,17.93
2023-05-06T01:25:20.237Z,19.87
2023-05-06T01:27:48.416Z,20.77
2023-05-06T01:30:19.129Z,21.80
2023-05-06T01:32:59.398Z,17.60
2023-05-06T01:35:35.361Z,20.90
2023-05-06T01:38:13.104Z,17.33
2023-05-06T01:40:43.746Z,20.47
2023-05-06T01:43:14.718Z,16.63
2023-05-06T01:45:49.454Z,18.47
2023-05-06T01:48:18.445Z,18.30
2023-05-06T01:50:46.747Z,13.97
2023-05-06T01:53:14.893Z,17.77
2023-05-06T01:55:44.327Z,15.50
2023-05-06T01:58:12.471Z,15.87
2023-05-06T02:00:40.574Z,14.77
2023-05-06T02:03:08.785Z,16.50
2023-05-06T02:05:36.972Z,13.70
2023-05-06T02:08:05.178Z,14.60
2023-05-06T02:10:33.252Z,14.90
2023-05-06T02:13:02.795Z,15.03
2023-05-06T02:15:30.929Z,14.77
2023-05-06T02:17:59.976Z,15.77
2023-05-06T02:20:28.277Z,13.93
2023-05-06T02:22:56.366Z,15.27
2023-05-06T02:25:24.778Z,14.03
2023-05-06T02:27:52.843Z,16.47
2023-05-06T02:30:22.336Z,14.00
2023-05-06T02:32:50.469Z,12.33
2023-05-06T02:35:18.635Z,13.37
2023-05-06T02:37:46.714Z,16.27
2023-05-06T02:40:14.997Z,13.63
2023-05-06T02:42:43.185Z,13.97
2023-05-06T02:45:12.306Z,13.70
2023-05-06T02:47:41.878Z,14.87
2023-05-06T02:50:10.277Z,16.07
2023-05-06T02:52:38.445Z,15.50
2023-05-06T02:55:07.840Z,15.17
2023-05-06T02:57:36.071Z,14.43
2023-05-06T03:08:21.340Z,15.53
2023-05-06T03:10:50.310Z,18.80
2023-05-06T03:13:18.406Z,15.73
2023-05-06T03:15:46.519Z,16.37
2023-05-06T03:18:14.596Z,19.77
2023-05-06T03:20:42.637Z,17.80
2023-05-06T03:23:10.758Z,18.80
2023-05-06T03:25:40.225Z,22.50
2023-05-06T03:28:08.318Z,19.53
2023-05-06T03:30:36.387Z,21.90
2023-05-06T03:33:04.552Z,21.23
2023-05-06T03:39:29.510Z,23.07
2023-05-06T03:41:59.102Z,27.30
2023-05-06T03:44:27.263Z,27.03
2023-05-06T03:46:55.410Z,23.30
2023-05-06T03:49:23.490Z,25.90
2023-05-06T03:51:51.774Z,26.50
2023-05-06T03:54:19.950Z,26.27
2023-05-06T03:56:48.064Z,25.90
2023-05-06T03:59:17.586Z,26.17
2023-05-06T04:01:45.898Z,27.63
2023-05-06T04:04:14.121Z,26.63
2023-05-06T04:06:42.212Z,24.77
2023-05-06T04:09:10.306Z,29.90
2023-05-06T04:11:38.412Z,30.30
2023-05-06T04:14:06.528Z,31.27
2023-05-06T04:16:36.106Z,29.20
2023-05-06T04:19:06.463Z,30.03
2023-05-06T04:21:34.827Z,26.17
2023-05-06T04:24:03.188Z,27.93
2023-05-06T04:26:31.481Z,32.87
2023-05-06T04:28:59.566Z,26.23
2023-05-06T04:31:29.808Z,26.27
2023-05-06T04:33:59.357Z,27.87
2023-05-06T04:36:27.551Z,25.47
2023-05-06T04:46:27.492Z,22.73
2023-05-06T04:48:56.931Z,23.17
2023-05-06T04:51:26.885Z,22.93
2023-05-06T04:53:54.982Z,23.80
2023-05-06T04:56:23.104Z,19.03
2023-05-06T04:58:51.272Z,24.13
2023-05-06T05:01:19.505Z,21.37
2023-05-06T05:03:47.721Z,20.93
2023-05-06T05:06:16.145Z,23.53
2023-05-06T05:08:45.839Z,22.13
2023-05-06T05:11:14.117Z,20.60
2023-05-06T05:13:42.252Z,19.80
2023-05-06T05:16:10.358Z,19.00
2023-05-06T05:18:38.467Z,20.30
2023-05-06T05:21:06.589Z,19.47
2023-05-06T05:23:34.710Z,19.47
2023-05-06T05:26:04.954Z,18.80
2023-05-06T05:28:33.094Z,19.50
2023-05-06T05:31:04.132Z,18.27
2023-05-06T05:33:32.483Z,15.57
2023-05-06T05:36:00.622Z,15.97
2023-05-06T05:38:28.848Z,14.87
2023-05-06T05:40:56.951Z,13.37
2023-05-06T05:43:27.064Z,16.07
2023-05-06T06:06:51.799Z,11.00
2023-05-06T06:09:19.919Z,9.65
2023-05-06T06:11:48.053Z,7.63
2023-05-06T06:14:16.165Z,8.90
2023-05-06T06:16:44.450Z,8.98
2023-05-06T06:19:12.742Z,10.80
2023-05-06T06:21:41.028Z,8.73
2023-05-06T06:24:10.519Z,7.95
2023-05-06T06:26:38.642Z,8.23
2023-05-06T06:29:06.732Z,11.23
2023-05-06T06:31:35.723Z,8.93
2023-05-06T06:34:06.459Z,9.80
2023-05-06T06:36:34.745Z,10.15
2023-05-06T06:39:02.984Z,8.68
2023-05-06T06:41:32.519Z,10.63
2023-05-06T06:44:00.877Z,12.73
2023-05-06T06:46:28.995Z,9.37
2023-05-06T06:48:57.107Z,8.32
2023-05-06T06:51:25.234Z,9.70
2023-05-06T06:53:53.453Z,9.55
2023-05-06T06:56:21.953Z,9.68
2023-05-06T06:58:53.274Z,8.80
2023-05-06T07:01:21.905Z,9.00
2023-05-06T07:03:50.089Z,9.48
2023-05-06T07:06:18.234Z,9.40
2023-05-06T07:08:46.380Z,10.18
2023-05-06T07:11:14.952Z,8.32
2023-05-06T07:13:43.044Z,9.90
2023-05-06T07:16:12.641Z,9.85
2023-05-06T07:18:40.727Z,8.43
2023-05-06T07:21:08.879Z,9.80
2023-05-06T07:23:37.154Z,8.70
2023-05-06T07:29:56.375Z,9.48
2023-05-06T07:32:25.873Z,8.40
2023-05-06T07:34:53.988Z,9.25
2023-05-06T07:37:22.062Z,8.48
2023-05-06T07:39:50.178Z,9.27
2023-05-06T07:42:18.308Z,8.27
2023-05-06T07:44:46.468Z,9.20
2023-05-06T07:47:18.388Z,7.97
2023-05-06T07:49:47.889Z,8.85
2023-05-06T07:52:16.026Z,8.40
2023-05-06T07:54:44.111Z,9.98
2023-05-06T07:57:12.220Z,7.85
2023-05-06T07:59:40.361Z,9.23
2023-05-06T08:02:08.516Z,11.20
2023-05-06T08:04:36.917Z,11.73
2023-05-06T08:07:06.556Z,10.40
2023-05-06T08:09:34.706Z,12.05
2023-05-06T08:12:02.811Z,9.45
2023-05-06T08:14:31.027Z,10.18
2023-05-06T08:20:40.337Z,12.18
2023-05-06T08:23:10.031Z,11.25
2023-05-06T08:25:38.374Z,8.75
2023-05-06T08:28:06.505Z,14.60
2023-05-06T08:30:34.769Z,17.92
2023-05-06T08:33:06.333Z,16.45
2023-05-06T08:35:34.711Z,10.73
2023-05-06T08:38:02.808Z,11.80
2023-05-06T08:40:33.809Z,12.00
2023-05-06T08:43:05.256Z,9.73
2023-05-06T08:45:34.262Z,10.07
2023-05-06T08:48:02.485Z,9.75
2023-05-06T08:50:30.699Z,12.15
2023-05-06T08:52:59.214Z,9.63
2023-05-06T08:55:28.785Z,7.72
2023-05-06T08:57:59.171Z,8.60
2023-05-06T09:00:27.427Z,8.40
2023-05-06T09:02:55.630Z,8.43
2023-05-06T09:05:23.723Z,8.00
2023-05-06T09:07:53.815Z,12.35
2023-05-06T09:10:21.996Z,5.28
2023-05-06T09:12:50.109Z,5.72
2023-05-06T09:15:24.489Z,6.38
2023-05-06T09:17:52.661Z,7.20
2023-05-06T09:20:20.903Z,5.85
2023-05-06T09:22:49.131Z,9.13
2023-05-06T09:25:17.418Z,5.97
2023-05-06T09:27:45.536Z,6.40
2023-05-06T09:30:14.622Z,6.50
2023-05-06T09:32:49.947Z,7.45
2023-05-06T09:35:18.107Z,5.60
2023-05-06T09:37:46.485Z,5.40
2023-05-06T09:40:15.487Z,6.93
2023-05-06T09:42:45.227Z,6.65
2023-05-06T09:45:17.746Z,4.43
2023-05-06T09:47:49.611Z,4.80
2023-05-06T09:50:17.887Z,5.28
2023-05-06T09:52:46.703Z,5.22
2023-05-06T09:55:16.096Z,5.45
2023-05-06T09:57:45.800Z,4.35
2023-05-06T10:00:15.966Z,5.20
2023-05-06T10:02:48.947Z,4.82
2023-05-06T10:05:18.690Z,4.40
2023-05-06T10:16:10.819Z,4.30
2023-05-06T10:18:42.464Z,3.50
2023-05-06T10:21:18.371Z,5.88
2023-05-06T10:23:55.530Z,3.83
2023-05-06T10:26:24.641Z,2.63
2023-05-06T10:28:54.936Z,4.30
2023-05-06T10:31:23.078Z,4.95
2023-05-06T10:33:55.443Z,4.90
2023-05-06T10:36:25.350Z,4.03
2023-05-06T10:38:56.519Z,3.60
2023-05-06T10:41:28.045Z,4.65
2023-05-06T10:43:57.661Z,5.22
2023-05-06T10:46:26.716Z,2.40
2023-05-06T10:49:19.224Z,4.60
2023-05-06T10:51:48.317Z,5.90
2023-05-06T10:54:25.637Z,3.63
2023-05-06T10:57:10.215Z,3.60
2023-05-06T10:59:38.289Z,5.28
2023-05-06T11:02:10.452Z,5.10
2023-05-06T11:04:40.874Z,5.10
2023-05-06T11:07:11.109Z,3.97
2023-05-06T11:09:57.829Z,3.60
2023-05-06T11:12:47.459Z,4.45
2023-05-06T11:15:39.362Z,4.43
2023-05-06T11:18:44.397Z,6.20
2023-05-06T11:21:39.926Z,4.43
2023-05-06T11:24:10.045Z,4.35
2023-05-06T11:26:38.158Z,5.10
2023-05-06T11:29:07.267Z,2.72
2023-05-06T11:31:41.770Z,3.03
2023-05-06T11:34:12.134Z,6.72
2023-05-06T11:37:00.706Z,6.88
2023-05-06T11:39:30.693Z,7.70
2023-05-06T11:42:06.709Z,4.80
2023-05-06T11:44:36.968Z,4.75
2023-05-06T11:47:06.755Z,5.20
2023-05-06T11:49:39.485Z,3.55
2023-05-06T11:55:50.718Z,5.10
2023-05-06T11:58:27.097Z,6.35
2023-05-06T12:00:56.551Z,3.78
2023-05-06T12:03:26.183Z,3.70
2023-05-06T12:05:54.407Z,3.63
2023-05-06T12:08:27.970Z,3.95
2023-05-06T12:11:00.769Z,4.78
2023-05-06T12:13:29.586Z,5.13
2023-05-06T12:16:00.425Z,5.05
2023-05-06T12:18:29.135Z,3.75
2023-05-06T12:20:57.937Z,4.53
2023-05-06T12:23:26.026Z,2.15
2023-05-06T12:26:04.120Z,4.32
2023-05-06T12:28:33.430Z,4.20
2023-05-06T12:31:02.093Z,3.00
2023-05-06T12:33:45.162Z,3.00
2023-05-06T12:36:13.449Z,2.90
2023-05-06T12:38:51.588Z,2.70
2023-05-06T12:41:21.520Z,4.25
2023-05-06T12:43:49.811Z,3.92
2023-05-06T12:46:18.449Z,4.20
2023-05-06T12:48:58.697Z,3.72
2023-05-06T12:51:27.302Z,4.05
2023-05-06T12:53:55.826Z,4.18
2023-05-06T12:56:25.744Z,2.95
2023-05-06T12:59:00.877Z,3.85
2023-05-06T13:01:29.139Z,3.15
2023-05-06T13:03:58.302Z,3.65
2023-05-06T13:06:26.502Z,2.63
2023-05-06T13:08:54.600Z,3.78
2023-05-06T13:11:24.517Z,3.03
2023-05-06T13:13:53.996Z,5.20
2023-05-06T13:16:22.192Z,2.92
2023-05-06T13:18:50.937Z,3.30
2023-05-06T13:21:19.094Z,3.50
2023-05-06T13:23:48.054Z,4.07
2023-05-06T13:26:17.437Z,4.82
2023-05-06T13:28:45.894Z,2.58
2023-05-06T13:31:15.376Z,3.05
2023-05-06T13:33:43.492Z,3.70
2023-05-06T13:36:11.585Z,3.45
2023-05-06T13:38:39.696Z,2.58
2023-05-06T13:41:08.716Z,1.65
2023-05-06T13:43:37.072Z,3.95
2023-05-06T13:46:05.245Z,2.78
2023-05-06T13:48:34.723Z,3.42
2023-05-06T13:51:02.779Z,2.55
2023-05-06T13:53:30.890Z,3.95
2023-05-06T13:55:58.964Z,3.95
2023-05-06T13:58:27.156Z,2.33
2023-05-06T14:00:55.234Z,2.95
2023-05-06T14:03:23.312Z,3.85
2023-05-06T14:05:52.912Z,2.65
2023-05-06T14:08:21.078Z,1.55
2023-05-06T14:10:49.178Z,2.55
2023-05-06T14:13:17.373Z,3.50
2023-05-06T14:15:45.542Z,2.80
2023-05-06T14:18:13.896Z,3.75
2023-05-06T14:20:42.356Z,4.28
2023-05-06T14:23:12.110Z,3.03
2023-05-06T14:25:40.493Z,2.85
2023-05-06T14:28:10.469Z,3.60
2023-05-06T14:30:38.936Z,3.58
2023-05-06T14:33:07.533Z,2.42
2023-05-06T14:35:36.041Z,3.50
2023-05-06T14:38:04.407Z,2.83
2023-05-06T14:40:35.995Z,3.20
2023-05-06T14:43:04.443Z,2.85
2023-05-06T14:45:32.622Z,2.15
2023-05-06T14:48:00.862Z,3.17
2023-05-06T14:50:29.052Z,1.70
2023-05-06T14:52:57.135Z,3.88
2023-05-06T14:55:25.878Z,3.97
2023-05-06T14:57:55.354Z,3.35
2023-05-06T15:00:23.456Z,2.72
2023-05-06T15:02:51.542Z,1.88
2023-05-06T15:05:19.741Z,2.75
2023-05-06T15:07:47.877Z,2.30
2023-05-06T15:10:16.100Z,1.77
2023-05-06T15:12:44.231Z,2.47
2023-05-06T15:15:13.929Z,1.88
2023-05-06T15:17:42.435Z,1.52
2023-05-06T15:20:11.508Z,4.53
2023-05-06T15:22:39.865Z,2.22
2023-05-06T15:25:12.320Z,5.45
2023-05-06T15:27:42.568Z,3.63
2023-05-06T15:30:11.242Z,1.48
2023-05-06T15:32:40.742Z,2.38
2023-05-06T15:35:09.805Z,2.47
2023-05-06T15:37:38.074Z,2.13
2023-05-06T15:40:11.173Z,2.70
2023-05-06T15:42:39.810Z,3.03
2023-05-06T15:45:09.029Z,2.78
2023-05-06T15:47:37.365Z,2.35
2023-05-06T15:52:38.639Z,2.78
2023-05-06T15:55:07.677Z,3.90
2023-05-06T15:57:36.504Z,2.60
2023-05-06T16:00:05.456Z,2.10
2023-05-06T16:02:33.922Z,2.72
2023-05-06T16:05:02.136Z,2.92
2023-05-06T16:07:31.630Z,3.90
2023-05-06T16:09:59.731Z,2.28
2023-05-06T16:12:27.879Z,2.20
2023-05-06T16:14:55.998Z,2.13
2023-05-06T16:17:24.274Z,2.78
2023-05-06T16:19:52.399Z,2.13
2023-05-06T16:22:20.473Z,4.43
2023-05-06T16:24:49.949Z,4.18
2023-05-06T16:27:18.003Z,1.45
2023-05-06T16:29:46.141Z,3.15
2023-05-06T16:32:14.263Z,3.58
2023-05-06T16:34:42.376Z,4.45
2023-05-06T16:37:10.445Z,1.50
2023-05-06T16:39:38.538Z,2.10
2023-05-06T16:42:08.000Z,1.80
2023-05-06T16:44:36.374Z,4.65
2023-05-06T16:47:04.642Z,2.22
2023-05-06T16:49:33.664Z,2.15
2023-05-06T16:52:01.881Z,3.03
2023-05-06T16:54:30.101Z,1.80
2023-05-06T16:56:58.203Z,2.63
2023-05-06T16:59:27.663Z,3.63
2023-05-06T17:01:55.812Z,8.82
2023-05-06T17:04:24.848Z,2.58
2023-05-06T17:06:52.986Z,3.45
2023-05-06T17:09:21.993Z,8.15
2023-05-06T17:11:50.531Z,3.13
2023-05-06T17:14:19.845Z,2.90
2023-05-06T17:16:51.031Z,3.53
2023-05-06T17:19:19.158Z,2.85
2023-05-06T17:21:47.276Z,2.58
2023-05-06T17:24:15.370Z,5.82
2023-05-06T17:26:43.560Z,3.45
2023-05-06T17:29:11.665Z,4.10
2023-05-06T17:31:39.739Z,3.78
2023-05-06T17:34:09.208Z,4.18
2023-05-06T17:36:37.319Z,4.10
2023-05-06T17:39:06.153Z,4.93
2023-05-06T17:41:34.301Z,4.90
2023-05-06T17:44:02.363Z,4.80
2023-05-06T17:46:31.196Z,3.63
2023-05-06T17:48:59.379Z,4.83
2023-05-06T17:51:28.803Z,3.83
2023-05-06T17:53:56.946Z,4.27
2023-05-06T17:56:26.644Z,5.60
2023-05-06T17:58:54.837Z,5.53
2023-05-06T18:01:23.031Z,3.88
2023-05-06T18:11:44.747Z,4.47
2023-05-06T18:14:12.957Z,8.73
2023-05-06T18:16:41.151Z,5.43
2023-05-06T18:19:09.309Z,6.38
2023-05-06T18:21:37.562Z,3.97
2023-05-06T18:24:16.076Z,3.53
2023-05-06T18:26:46.561Z,2.33
2023-05-06T18:29:14.846Z,4.67
2023-05-06T18:31:43.201Z,3.22
2023-05-06T18:34:11.290Z,5.10
2023-05-06T18:36:39.380Z,5.23
2023-05-06T18:39:07.662Z,6.00
2023-05-06T18:41:35.759Z,3.90
2023-05-06T18:44:05.816Z,3.30
2023-05-06T18:46:34.373Z,2.93
2023-05-06T18:49:02.484Z,5.37
2023-05-06T18:51:31.986Z,5.83
2023-05-06T18:54:00.224Z,6.07
2023-05-06T18:56:28.334Z,4.33
2023-05-06T18:58:56.527Z,7.70
2023-05-06T19:01:26.298Z,8.10
2023-05-06T19:03:54.569Z,4.93
2023-05-06T19:06:22.751Z,4.33
2023-05-06T19:08:50.882Z,7.90
2023-05-06T19:11:19.501Z,5.20
2023-05-06T19:13:47.742Z,4.97
2023-05-06T19:16:15.886Z,4.40
2023-05-06T19:18:45.355Z,4.23
2023-05-06T19:21:13.592Z,2.77
2023-05-06T19:23:42.048Z,3.33
2023-05-06T19:26:11.175Z,4.40
2023-05-06T19:28:41.080Z,3.77
2023-05-06T19:31:09.574Z,5.50
2023-05-06T19:33:38.052Z,3.33
2023-05-06T19:36:08.872Z,3.17
2023-05-06T19:38:36.983Z,4.33
2023-05-06T19:41:05.476Z,3.50
2023-05-06T19:43:33.769Z,4.33
2023-05-06T19:46:01.850Z,5.63
2023-05-06T19:48:30.408Z,3.37
2023-05-06T19:50:58.538Z,4.80
2023-05-06T19:53:28.064Z,4.60
2023-05-06T19:55:57.908Z,4.13
2023-05-06T19:58:26.105Z,4.80
2023-05-06T20:00:54.183Z,5.93
2023-05-06T20:03:22.367Z,4.30
2023-05-06T20:05:50.552Z,4.27
2023-05-06T20:08:18.661Z,3.83
2023-05-06T20:10:49.660Z,5.13
2023-05-06T20:13:18.566Z,4.30
2023-05-06T20:15:47.740Z,4.77
2023-05-06T20:18:16.010Z,4.27
2023-05-06T20:20:44.434Z,5.37
2023-05-06T20:23:12.556Z,4.57
2023-05-06T20:25:40.696Z,3.73
2023-05-06T20:28:10.223Z,5.60
2023-05-06T20:30:38.954Z,4.17
2023-05-06T20:33:07.860Z,9.53
2023-05-06T20:35:38.378Z,4.60
2023-05-06T20:38:06.764Z,5.40
2023-05-06T20:40:35.783Z,4.90
2023-05-06T20:43:04.054Z,5.10
2023-05-06T20:45:33.576Z,4.73
2023-05-06T20:48:01.710Z,4.60
2023-05-06T20:50:30.898Z,4.23
2023-05-06T20:52:59.047Z,6.43
2023-05-06T20:55:27.256Z,4.30
2023-05-06T20:57:55.402Z,3.70
2023-05-06T21:00:23.788Z,4.40
2023-05-06T21:02:53.296Z,3.90
2023-05-06T21:05:21.468Z,5.43
2023-05-06T21:07:49.526Z,5.47
2023-05-06T21:10:17.690Z,4.40
2023-05-06T21:12:48.939Z,4.63
2023-05-06T21:15:17.203Z,4.00
2023-05-06T21:17:45.421Z,4.40
2023-05-06T21:20:15.212Z,4.93
2023-05-06T21:22:43.293Z,3.93
2023-05-06T21:25:13.193Z,5.67
2023-05-06T21:27:41.545Z,5.10
2023-05-06T21:30:10.662Z,4.07
2023-05-06T21:32:38.939Z,4.20
2023-05-06T21:35:07.924Z,5.00
2023-05-06T21:37:37.440Z,5.57
2023-05-06T21:40:06.524Z,5.33
2023-05-06T21:42:34.589Z,5.10
2023-05-06T21:45:02.672Z,6.00
2023-05-06T21:47:30.808Z,4.77
2023-05-06T21:49:59.029Z,6.00
2023-05-06T21:52:27.104Z,5.03
2023-05-06T21:54:56.569Z,5.80
2023-05-06T21:57:24.677Z,6.70
2023-05-06T21:59:52.855Z,6.57
2023-05-06T22:02:21.222Z,5.47
2023-05-06T22:04:49.392Z,7.37
2023-05-06T22:07:17.539Z,5.87
2023-05-06T22:09:45.744Z,5.57
2023-05-06T22:12:15.523Z,4.77
2023-05-06T22:14:43.671Z,5.03
2023-05-06T22:17:12.526Z,6.00
2023-05-06T22:19:41.818Z,4.53
2023-05-06T22:22:10.412Z,5.03
2023-05-06T22:24:38.525Z,4.20
2023-05-06T22:27:06.633Z,4.50
2023-05-06T22:29:36.096Z,4.23
2023-05-06T22:40:14.275Z,3.90
2023-05-06T22:42:42.337Z,4.13
2023-05-06T22:45:12.782Z,4.53
2023-05-06T22:47:41.108Z,7.33
2023-05-06T22:50:09.988Z,4.43
2023-05-06T22:52:38.111Z,6.90
2023-05-06T22:55:09.575Z,5.93
2023-05-06T22:57:37.953Z,3.73
2023-05-06T23:00:08.656Z,5.83
2023-05-06T23:02:38.135Z,4.10
2023-05-06T23:05:07.267Z,5.57
2023-05-06T23:07:35.396Z,4.53
2023-05-06T23:10:03.578Z,4.80
2023-05-06T23:12:33.737Z,5.07
2023-05-06T23:15:01.934Z,5.87
2023-05-06T23:17:30.037Z,4.30
2023-05-06T23:19:59.934Z,3.97
2023-05-06T23:22:28.331Z,5.63
2023-05-06T23:24:56.423Z,5.87
2023-05-06T23:27:24.505Z,5.37
2023-05-06T23:29:52.597Z,5.03
2023-05-06T23:32:20.670Z,5.17
2023-05-06T23:34:49.194Z,4.70
2023-05-06T23:37:18.792Z,6.27
2023-05-06T23:39:47.658Z,4.53
2023-05-06T23:42:15.741Z,4.13
2023-05-06T23:44:43.910Z,4.57
2023-05-06T23:47:12.047Z,4.43
2023-05-06T23:49:40.125Z,4.73
